sensor_id;sensor_type;location;lat;lon;timestamp;P1;durP1;ratioP1;P2;durP2;ratioP2
45642;SDS011;31358;46.008;11.144;2024-02-15T00:00:48;5.70;;;1.67;;
45642;SDS011;31358;46.008;11.144;2024-02-15T00:03:16;8.60;;;2.20;;
45642;SDS011;31358;46.008;11.144;2024-02-15T00:05:43;4.78;;;2.33;;
45642;SDS011;31358;46.008;11.144;2024-02-15T00:08:09;3.13;;;1.55;;
45642;SDS011;31358;46.008;11.144;2024-02-15T00:10:34;4.60;;;1.95;;
45642;SDS011;31358;46.008;11.144;2024-02-15T00:13:00;5.20;;;1.65;;
45642;SDS011;31358;46.008;11.144;2024-02-15T00:15:26;4.82;;;1.90;;
45642;SDS011;31358;46.008;11.144;2024-02-15T00:17:51;3.40;;;1.83;;
45642;SDS011;31358;46.008;11.144;2024-02-15T00:20:17;5.68;;;2.58;;
45642;SDS011;31358;46.008;11.144;2024-02-15T00:22:43;4.95;;;2.10;;
45642;SDS011;31358;46.008;11.144;2024-02-15T00:25:10;3.42;;;1.67;;
45642;SDS011;31358;46.008;11.144;2024-02-15T00:27:36;5.22;;;2.03;;
45642;SDS011;31358;46.008;11.144;2024-02-15T00:30:02;4.72;;;1.90;;
45642;SDS011;31358;46.008;11.144;2024-02-15T00:32:30;3.90;;;1.60;;
45642;SDS011;31358;46.008;11.144;2024-02-15T00:34:56;6.85;;;2.13;;
45642;SDS011;31358;46.008;11.144;2024-02-15T00:37:21;4.13;;;1.73;;
45642;SDS011;31358;46.008;11.144;2024-02-15T00:39:47;6.05;;;1.73;;
45642;SDS011;31358;46.008;11.144;2024-02-15T00:42:13;5.60;;;2.25;;
45642;SDS011;31358;46.008;11.144;2024-02-15T00:44:40;4.57;;;1.77;;
45642;SDS011;31358;46.008;11.144;2024-02-15T00:47:06;6.25;;;2.78;;
45642;SDS011;31358;46.008;11.144;2024-02-15T00:49:35;3.97;;;1.92;;
45642;SDS011;31358;46.008;11.144;2024-02-15T00:52:01;4.20;;;1.73;;
45642;SDS011;31358;46.008;11.144;2024-02-15T00:54:27;5.15;;;2.03;;
45642;SDS011;31358;46.008;11.144;2024-02-15T00:56:52;5.00;;;1.70;;
45642;SDS011;31358;46.008;11.144;2024-02-15T00:59:18;4.43;;;1.95;;
45642;SDS011;31358;46.008;11.144;2024-02-15T01:01:44;4.00;;;2.10;;
45642;SDS011;31358;46.008;11.144;2024-02-15T01:04:10;5.43;;;2.22;;
45642;SDS011;31358;46.008;11.144;2024-02-15T01:06:35;9.50;;;2.75;;
45642;SDS011;31358;46.008;11.144;2024-02-15T01:09:01;4.13;;;1.88;;
45642;SDS011;31358;46.008;11.144;2024-02-15T01:11:29;4.80;;;2.15;;
45642;SDS011;31358;46.008;11.144;2024-02-15T01:13:57;4.00;;;1.90;;
45642;SDS011;31358;46.008;11.144;2024-02-15T01:16:23;4.95;;;1.80;;
45642;SDS011;31358;46.008;11.144;2024-02-15T01:18:49;4.18;;;2.00;;
45642;SDS011;31358;46.008;11.144;2024-02-15T01:21:15;4.35;;;1.58;;
45642;SDS011;31358;46.008;11.144;2024-02-15T01:23:42;3.35;;;1.58;;
45642;SDS011;31358;46.008;11.144;2024-02-15T01:26:09;3.83;;;1.58;;
45642;SDS011;31358;46.008;11.144;2024-02-15T01:28:34;4.20;;;2.10;;
45642;SDS011;31358;46.008;11.144;2024-02-15T01:31:00;4.60;;;1.80;;
45642;SDS011;31358;46.008;11.144;2024-02-15T01:33:26;4.15;;;1.80;;
45642;SDS011;31358;46.008;11.144;2024-02-15T01:35:52;5.50;;;2.22;;
45642;SDS011;31358;46.008;11.144;2024-02-15T01:38:18;4.18;;;1.95;;
45642;SDS011;31358;46.008;11.144;2024-02-15T01:40:46;5.40;;;2.10;;
45642;SDS011;31358;46.008;11.144;2024-02-15T01:43:12;4.47;;;1.75;;
45642;SDS011;31358;46.008;11.144;2024-02-15T01:45:37;5.75;;;2.00;;
45642;SDS011;31358;46.008;11.144;2024-02-15T01:48:03;7.45;;;2.33;;
45642;SDS011;31358;46.008;11.144;2024-02-15T01:50:30;3.85;;;1.98;;
45642;SDS011;31358;46.008;11.144;2024-02-15T01:52:59;5.47;;;2.40;;
45642;SDS011;31358;46.008;11.144;2024-02-15T01:55:26;5.30;;;2.00;;
45642;SDS011;31358;46.008;11.144;2024-02-15T01:57:52;6.03;;;1.98;;
45642;SDS011;31358;46.008;11.144;2024-02-15T02:00:18;5.53;;;2.20;;
45642;SDS011;31358;46.008;11.144;2024-02-15T02:02:44;3.95;;;1.50;;
45642;SDS011;31358;46.008;11.144;2024-02-15T02:05:11;4.93;;;1.92;;
45642;SDS011;31358;46.008;11.144;2024-02-15T02:07:39;3.15;;;1.50;;
45642;SDS011;31358;46.008;11.144;2024-02-15T02:10:06;4.88;;;1.98;;
45642;SDS011;31358;46.008;11.144;2024-02-15T02:12:34;4.40;;;1.63;;
45642;SDS011;31358;46.008;11.144;2024-02-15T02:14:59;4.18;;;1.83;;
45642;SDS011;31358;46.008;11.144;2024-02-15T02:17:25;4.03;;;2.00;;
45642;SDS011;31358;46.008;11.144;2024-02-15T02:19:51;4.47;;;2.13;;
45642;SDS011;31358;46.008;11.144;2024-02-15T02:22:16;4.32;;;1.52;;
45642;SDS011;31358;46.008;11.144;2024-02-15T02:25:04;4.38;;;1.77;;
45642;SDS011;31358;46.008;11.144;2024-02-15T02:27:33;5.22;;;1.83;;
45642;SDS011;31358;46.008;11.144;2024-02-15T02:30:01;5.50;;;2.15;;
45642;SDS011;31358;46.008;11.144;2024-02-15T02:32:32;3.50;;;1.70;;
45642;SDS011;31358;46.008;11.144;2024-02-15T02:34:59;3.20;;;1.70;;
45642;SDS011;31358;46.008;11.144;2024-02-15T02:37:25;5.85;;;1.98;;
45642;SDS011;31358;46.008;11.144;2024-02-15T02:39:51;3.00;;;1.25;;
45642;SDS011;31358;46.008;11.144;2024-02-15T02:42:17;4.10;;;1.67;;
45642;SDS011;31358;46.008;11.144;2024-02-15T02:44:43;3.35;;;1.40;;
45642;SDS011;31358;46.008;11.144;2024-02-15T02:47:09;4.88;;;1.80;;
45642;SDS011;31358;46.008;11.144;2024-02-15T02:49:35;3.20;;;1.42;;
45642;SDS011;31358;46.008;11.144;2024-02-15T02:52:01;6.32;;;1.80;;
45642;SDS011;31358;46.008;11.144;2024-02-15T02:54:28;4.60;;;1.50;;
45642;SDS011;31358;46.008;11.144;2024-02-15T02:56:54;7.13;;;1.70;;
45642;SDS011;31358;46.008;11.144;2024-02-15T02:59:20;5.45;;;1.80;;
45642;SDS011;31358;46.008;11.144;2024-02-15T03:01:45;4.68;;;1.90;;
45642;SDS011;31358;46.008;11.144;2024-02-15T03:04:11;4.07;;;1.90;;
45642;SDS011;31358;46.008;11.144;2024-02-15T03:06:37;4.70;;;1.70;;
45642;SDS011;31358;46.008;11.144;2024-02-15T03:09:03;4.95;;;1.80;;
45642;SDS011;31358;46.008;11.144;2024-02-15T03:11:32;4.60;;;1.40;;
45642;SDS011;31358;46.008;11.144;2024-02-15T03:13:59;2.83;;;1.15;;
45642;SDS011;31358;46.008;11.144;2024-02-15T03:16:25;3.60;;;1.50;;
45642;SDS011;31358;46.008;11.144;2024-02-15T03:18:52;2.45;;;1.30;;
45642;SDS011;31358;46.008;11.144;2024-02-15T03:21:18;4.72;;;1.83;;
45642;SDS011;31358;46.008;11.144;2024-02-15T03:23:45;4.65;;;2.28;;
45642;SDS011;31358;46.008;11.144;2024-02-15T03:26:11;3.67;;;1.58;;
45642;SDS011;31358;46.008;11.144;2024-02-15T03:28:37;4.80;;;1.17;;
45642;SDS011;31358;46.008;11.144;2024-02-15T03:31:03;3.35;;;1.60;;
45642;SDS011;31358;46.008;11.144;2024-02-15T03:33:29;4.25;;;1.52;;
45642;SDS011;31358;46.008;11.144;2024-02-15T03:35:59;4.97;;;1.50;;
45642;SDS011;31358;46.008;11.144;2024-02-15T03:38:26;3.67;;;1.77;;
45642;SDS011;31358;46.008;11.144;2024-02-15T03:40:54;6.43;;;1.85;;
45642;SDS011;31358;46.008;11.144;2024-02-15T03:43:20;3.53;;;1.58;;
45642;SDS011;31358;46.008;11.144;2024-02-15T03:45:46;4.47;;;1.30;;
45642;SDS011;31358;46.008;11.144;2024-02-15T03:48:12;4.40;;;1.30;;
45642;SDS011;31358;46.008;11.144;2024-02-15T03:50:37;5.82;;;1.40;;
45642;SDS011;31358;46.008;11.144;2024-02-15T03:53:03;2.47;;;1.33;;
45642;SDS011;31358;46.008;11.144;2024-02-15T03:55:29;3.65;;;1.48;;
45642;SDS011;31358;46.008;11.144;2024-02-15T03:57:55;5.60;;;1.35;;
45642;SDS011;31358;46.008;11.144;2024-02-15T04:00:22;4.32;;;2.00;;
45642;SDS011;31358;46.008;11.144;2024-02-15T04:02:49;2.92;;;1.23;;
45642;SDS011;31358;46.008;11.144;2024-02-15T04:05:15;2.47;;;1.20;;
45642;SDS011;31358;46.008;11.144;2024-02-15T04:07:43;3.58;;;1.40;;
45642;SDS011;31358;46.008;11.144;2024-02-15T04:10:09;3.17;;;1.33;;
45642;SDS011;31358;46.008;11.144;2024-02-15T04:12:35;2.75;;;1.10;;
45642;SDS011;31358;46.008;11.144;2024-02-15T04:15:01;3.97;;;1.50;;
45642;SDS011;31358;46.008;11.144;2024-02-15T04:17:32;3.65;;;1.30;;
45642;SDS011;31358;46.008;11.144;2024-02-15T04:20:00;3.42;;;1.60;;
45642;SDS011;31358;46.008;11.144;2024-02-15T04:22:26;6.40;;;1.58;;
45642;SDS011;31358;46.008;11.144;2024-02-15T04:24:51;4.45;;;1.40;;
45642;SDS011;31358;46.008;11.144;2024-02-15T04:27:17;3.25;;;1.42;;
45642;SDS011;31358;46.008;11.144;2024-02-15T04:29:45;3.67;;;1.50;;
45642;SDS011;31358;46.008;11.144;2024-02-15T04:32:11;4.57;;;1.60;;
45642;SDS011;31358;46.008;11.144;2024-02-15T04:34:38;3.13;;;1.15;;
45642;SDS011;31358;46.008;11.144;2024-02-15T04:37:07;4.47;;;1.75;;
45642;SDS011;31358;46.008;11.144;2024-02-15T04:39:36;2.80;;;1.30;;
45642;SDS011;31358;46.008;11.144;2024-02-15T04:42:05;3.05;;;1.23;;
45642;SDS011;31358;46.008;11.144;2024-02-15T04:44:33;3.63;;;1.88;;
45642;SDS011;31358;46.008;11.144;2024-02-15T04:47:00;6.28;;;1.27;;
45642;SDS011;31358;46.008;11.144;2024-02-15T04:49:29;3.80;;;1.30;;
45642;SDS011;31358;46.008;11.144;2024-02-15T04:51:55;3.30;;;1.38;;
45642;SDS011;31358;46.008;11.144;2024-02-15T04:54:22;3.67;;;1.30;;
45642;SDS011;31358;46.008;11.144;2024-02-15T04:56:48;3.25;;;1.40;;
45642;SDS011;31358;46.008;11.144;2024-02-15T04:59:17;3.53;;;1.20;;
45642;SDS011;31358;46.008;11.144;2024-02-15T05:01:44;3.50;;;1.67;;
45642;SDS011;31358;46.008;11.144;2024-02-15T05:04:10;4.95;;;1.55;;
45642;SDS011;31358;46.008;11.144;2024-02-15T05:06:37;6.20;;;1.70;;
45642;SDS011;31358;46.008;11.144;2024-02-15T05:09:03;2.78;;;1.25;;
45642;SDS011;31358;46.008;11.144;2024-02-15T05:11:35;3.60;;;1.25;;
45642;SDS011;31358;46.008;11.144;2024-02-15T05:14:02;4.03;;;1.80;;
45642;SDS011;31358;46.008;11.144;2024-02-15T05:16:32;4.60;;;1.70;;
45642;SDS011;31358;46.008;11.144;2024-02-15T05:19:03;1.92;;;1.00;;
45642;SDS011;31358;46.008;11.144;2024-02-15T05:21:30;3.70;;;1.40;;
45642;SDS011;31358;46.008;11.144;2024-02-15T05:23:56;3.35;;;1.35;;
45642;SDS011;31358;46.008;11.144;2024-02-15T05:26:22;3.28;;;1.45;;
45642;SDS011;31358;46.008;11.144;2024-02-15T05:28:51;3.03;;;1.50;;
45642;SDS011;31358;46.008;11.144;2024-02-15T05:31:18;3.38;;;1.52;;
45642;SDS011;31358;46.008;11.144;2024-02-15T05:33:48;3.85;;;1.50;;
45642;SDS011;31358;46.008;11.144;2024-02-15T05:36:15;4.43;;;1.52;;
45642;SDS011;31358;46.008;11.144;2024-02-15T05:38:46;3.53;;;1.70;;
45642;SDS011;31358;46.008;11.144;2024-02-15T05:41:13;3.55;;;1.60;;
45642;SDS011;31358;46.008;11.144;2024-02-15T05:43:39;5.80;;;1.63;;
45642;SDS011;31358;46.008;11.144;2024-02-15T05:46:06;3.00;;;1.65;;
45642;SDS011;31358;46.008;11.144;2024-02-15T05:48:33;3.92;;;1.48;;
45642;SDS011;31358;46.008;11.144;2024-02-15T05:51:00;3.47;;;1.42;;
45642;SDS011;31358;46.008;11.144;2024-02-15T05:53:26;4.20;;;1.77;;
45642;SDS011;31358;46.008;11.144;2024-02-15T05:55:52;3.40;;;1.50;;
45642;SDS011;31358;46.008;11.144;2024-02-15T05:58:18;3.72;;;1.40;;
45642;SDS011;31358;46.008;11.144;2024-02-15T06:00:44;3.00;;;1.52;;
45642;SDS011;31358;46.008;11.144;2024-02-15T06:03:12;3.53;;;1.45;;
45642;SDS011;31358;46.008;11.144;2024-02-15T06:05:38;3.60;;;1.60;;
45642;SDS011;31358;46.008;11.144;2024-02-15T06:08:05;2.97;;;1.45;;
45642;SDS011;31358;46.008;11.144;2024-02-15T06:10:30;5.57;;;1.70;;
45642;SDS011;31358;46.008;11.144;2024-02-15T06:12:56;3.10;;;1.40;;
45642;SDS011;31358;46.008;11.144;2024-02-15T06:15:25;3.70;;;1.60;;
45642;SDS011;31358;46.008;11.144;2024-02-15T06:17:54;5.50;;;1.75;;
45642;SDS011;31358;46.008;11.144;2024-02-15T06:20:22;3.67;;;1.58;;
45642;SDS011;31358;46.008;11.144;2024-02-15T06:22:48;6.30;;;1.80;;
45642;SDS011;31358;46.008;11.144;2024-02-15T06:25:14;5.45;;;1.67;;
45642;SDS011;31358;46.008;11.144;2024-02-15T06:27:45;3.35;;;1.35;;
45642;SDS011;31358;46.008;11.144;2024-02-15T06:30:12;5.85;;;1.98;;
45642;SDS011;31358;46.008;11.144;2024-02-15T06:32:59;7.03;;;2.00;;
45642;SDS011;31358;46.008;11.144;2024-02-15T06:35:43;3.95;;;1.92;;
45642;SDS011;31358;46.008;11.144;2024-02-15T06:38:28;5.87;;;2.20;;
45642;SDS011;31358;46.008;11.144;2024-02-15T06:41:12;3.20;;;1.50;;
45642;SDS011;31358;46.008;11.144;2024-02-15T06:43:38;5.63;;;1.50;;
45642;SDS011;31358;46.008;11.144;2024-02-15T06:46:07;5.63;;;1.23;;
45642;SDS011;31358;46.008;11.144;2024-02-15T06:48:34;3.53;;;1.40;;
45642;SDS011;31358;46.008;11.144;2024-02-15T06:50:59;4.38;;;1.70;;
45642;SDS011;31358;46.008;11.144;2024-02-15T06:53:25;4.53;;;2.05;;
45642;SDS011;31358;46.008;11.144;2024-02-15T06:55:51;7.30;;;2.05;;
45642;SDS011;31358;46.008;11.144;2024-02-15T06:58:17;7.10;;;2.13;;
45642;SDS011;31358;46.008;11.144;2024-02-15T07:00:43;5.35;;;2.08;;
45642;SDS011;31358;46.008;11.144;2024-02-15T07:03:09;4.60;;;2.28;;
45642;SDS011;31358;46.008;11.144;2024-02-15T07:05:38;6.10;;;2.10;;
45642;SDS011;31358;46.008;11.144;2024-02-15T07:08:04;4.72;;;1.80;;
45642;SDS011;31358;46.008;11.144;2024-02-15T07:10:30;5.10;;;2.22;;
45642;SDS011;31358;46.008;11.144;2024-02-15T07:12:56;8.43;;;2.40;;
45642;SDS011;31358;46.008;11.144;2024-02-15T07:15:22;4.70;;;2.30;;
45642;SDS011;31358;46.008;11.144;2024-02-15T07:17:48;3.78;;;1.90;;
45642;SDS011;31358;46.008;11.144;2024-02-15T07:20:14;4.05;;;1.83;;
45642;SDS011;31358;46.008;11.144;2024-02-15T07:22:42;3.95;;;2.20;;
45642;SDS011;31358;46.008;11.144;2024-02-15T07:25:10;4.30;;;1.55;;
45642;SDS011;31358;46.008;11.144;2024-02-15T07:27:36;4.63;;;1.52;;
45642;SDS011;31358;46.008;11.144;2024-02-15T07:30:02;4.82;;;1.65;;
45642;SDS011;31358;46.008;11.144;2024-02-15T07:32:30;3.65;;;1.52;;
45642;SDS011;31358;46.008;11.144;2024-02-15T07:34:57;7.93;;;2.78;;
45642;SDS011;31358;46.008;11.144;2024-02-15T07:37:22;4.28;;;2.10;;
45642;SDS011;31358;46.008;11.144;2024-02-15T07:39:51;6.22;;;3.00;;
45642;SDS011;31358;46.008;11.144;2024-02-15T07:42:17;7.57;;;3.53;;
45642;SDS011;31358;46.008;11.144;2024-02-15T07:44:43;6.80;;;3.45;;
45642;SDS011;31358;46.008;11.144;2024-02-15T07:47:09;9.85;;;4.18;;
45642;SDS011;31358;46.008;11.144;2024-02-15T07:49:38;9.23;;;5.05;;
45642;SDS011;31358;46.008;11.144;2024-02-15T07:52:03;7.03;;;3.90;;
45642;SDS011;31358;46.008;11.144;2024-02-15T07:54:32;7.07;;;2.65;;
45642;SDS011;31358;46.008;11.144;2024-02-15T07:56:58;5.78;;;2.45;;
45642;SDS011;31358;46.008;11.144;2024-02-15T07:59:24;6.95;;;2.80;;
45642;SDS011;31358;46.008;11.144;2024-02-15T08:01:50;9.15;;;4.85;;
45642;SDS011;31358;46.008;11.144;2024-02-15T08:04:16;5.10;;;2.40;;
45642;SDS011;31358;46.008;11.144;2024-02-15T08:06:49;6.03;;;2.10;;
45642;SDS011;31358;46.008;11.144;2024-02-15T08:09:18;5.78;;;2.25;;
45642;SDS011;31358;46.008;11.144;2024-02-15T08:11:46;3.75;;;1.63;;
45642;SDS011;31358;46.008;11.144;2024-02-15T08:14:12;5.13;;;2.50;;
45642;SDS011;31358;46.008;11.144;2024-02-15T08:16:38;6.75;;;3.17;;
45642;SDS011;31358;46.008;11.144;2024-02-15T08:19:05;6.95;;;3.28;;
45642;SDS011;31358;46.008;11.144;2024-02-15T08:21:33;4.97;;;2.17;;
45642;SDS011;31358;46.008;11.144;2024-02-15T08:24:04;4.60;;;2.03;;
45642;SDS011;31358;46.008;11.144;2024-02-15T08:26:33;6.70;;;3.00;;
45642;SDS011;31358;46.008;11.144;2024-02-15T08:29:03;10.73;;;4.18;;
45642;SDS011;31358;46.008;11.144;2024-02-15T08:31:29;8.43;;;3.88;;
45642;SDS011;31358;46.008;11.144;2024-02-15T08:33:56;6.80;;;3.20;;
45642;SDS011;31358;46.008;11.144;2024-02-15T08:36:22;9.23;;;3.05;;
45642;SDS011;31358;46.008;11.144;2024-02-15T08:38:49;6.10;;;2.92;;
45642;SDS011;31358;46.008;11.144;2024-02-15T08:41:15;13.55;;;5.70;;
45642;SDS011;31358;46.008;11.144;2024-02-15T08:43:43;8.73;;;4.10;;
45642;SDS011;31358;46.008;11.144;2024-02-15T08:46:11;8.02;;;2.72;;
45642;SDS011;31358;46.008;11.144;2024-02-15T08:48:37;3.78;;;2.17;;
45642;SDS011;31358;46.008;11.144;2024-02-15T08:51:03;3.42;;;1.60;;
45642;SDS011;31358;46.008;11.144;2024-02-15T08:53:31;6.60;;;1.77;;
45642;SDS011;31358;46.008;11.144;2024-02-15T08:55:57;4.15;;;1.90;;
45642;SDS011;31358;46.008;11.144;2024-02-15T08:58:22;4.13;;;1.75;;
45642;SDS011;31358;46.008;11.144;2024-02-15T09:00:48;6.80;;;1.70;;
45642;SDS011;31358;46.008;11.144;2024-02-15T09:03:14;3.47;;;1.60;;
45642;SDS011;31358;46.008;11.144;2024-02-15T09:05:40;5.28;;;2.58;;
45642;SDS011;31358;46.008;11.144;2024-02-15T09:08:06;7.70;;;3.78;;
45642;SDS011;31358;46.008;11.144;2024-02-15T09:10:32;7.15;;;3.88;;
45642;SDS011;31358;46.008;11.144;2024-02-15T09:12:58;8.70;;;3.78;;
45642;SDS011;31358;46.008;11.144;2024-02-15T09:15:24;5.90;;;2.95;;
45642;SDS011;31358;46.008;11.144;2024-02-15T09:17:50;6.43;;;3.28;;
45642;SDS011;31358;46.008;11.144;2024-02-15T09:20:16;8.65;;;2.90;;
45642;SDS011;31358;46.008;11.144;2024-02-15T09:22:48;8.18;;;3.28;;
45642;SDS011;31358;46.008;11.144;2024-02-15T09:25:15;5.20;;;2.65;;
45642;SDS011;31358;46.008;11.144;2024-02-15T09:27:42;12.20;;;3.25;;
45642;SDS011;31358;46.008;11.144;2024-02-15T09:30:08;8.43;;;3.63;;
45642;SDS011;31358;46.008;11.144;2024-02-15T09:32:38;7.07;;;3.40;;
45642;SDS011;31358;46.008;11.144;2024-02-15T09:35:04;8.68;;;3.35;;
45642;SDS011;31358;46.008;11.144;2024-02-15T09:37:33;5.97;;;3.20;;
45642;SDS011;31358;46.008;11.144;2024-02-15T09:40:08;4.90;;;2.30;;
45642;SDS011;31358;46.008;11.144;2024-02-15T09:42:35;4.38;;;2.00;;
45642;SDS011;31358;46.008;11.144;2024-02-15T09:45:01;7.65;;;1.83;;
45642;SDS011;31358;46.008;11.144;2024-02-15T09:47:30;4.28;;;2.47;;
45642;SDS011;31358;46.008;11.144;2024-02-15T09:50:02;5.20;;;2.28;;
45642;SDS011;31358;46.008;11.144;2024-02-15T09:52:31;6.30;;;2.72;;
45642;SDS011;31358;46.008;11.144;2024-02-15T09:55:01;7.40;;;3.50;;
45642;SDS011;31358;46.008;11.144;2024-02-15T09:57:28;6.53;;;2.90;;
45642;SDS011;31358;46.008;11.144;2024-02-15T09:59:54;7.00;;;3.58;;
45642;SDS011;31358;46.008;11.144;2024-02-15T10:02:20;9.15;;;4.22;;
45642;SDS011;31358;46.008;11.144;2024-02-15T10:04:46;5.18;;;2.72;;
45642;SDS011;31358;46.008;11.144;2024-02-15T10:07:13;5.25;;;2.60;;
45642;SDS011;31358;46.008;11.144;2024-02-15T10:09:38;5.78;;;2.50;;
45642;SDS011;31358;46.008;11.144;2024-02-15T10:12:07;5.68;;;2.20;;
45642;SDS011;31358;46.008;11.144;2024-02-15T10:14:34;5.32;;;2.17;;
45642;SDS011;31358;46.008;11.144;2024-02-15T10:17:06;4.43;;;1.88;;
45642;SDS011;31358;46.008;11.144;2024-02-15T10:19:36;4.75;;;2.00;;
45642;SDS011;31358;46.008;11.144;2024-02-15T10:22:07;7.50;;;1.75;;
45642;SDS011;31358;46.008;11.144;2024-02-15T10:24:34;6.63;;;1.90;;
45642;SDS011;31358;46.008;11.144;2024-02-15T10:27:01;4.75;;;2.47;;
45642;SDS011;31358;46.008;11.144;2024-02-15T10:29:32;4.00;;;1.95;;
45642;SDS011;31358;46.008;11.144;2024-02-15T10:31:59;3.92;;;2.00;;
45642;SDS011;31358;46.008;11.144;2024-02-15T10:34:25;4.50;;;1.95;;
45642;SDS011;31358;46.008;11.144;2024-02-15T10:36:55;4.28;;;1.80;;
45642;SDS011;31358;46.008;11.144;2024-02-15T10:39:34;5.03;;;2.15;;
45642;SDS011;31358;46.008;11.144;2024-02-15T10:42:00;4.93;;;2.25;;
45642;SDS011;31358;46.008;11.144;2024-02-15T10:44:26;4.25;;;1.95;;
45642;SDS011;31358;46.008;11.144;2024-02-15T10:46:52;4.97;;;2.05;;
45642;SDS011;31358;46.008;11.144;2024-02-15T10:49:19;4.38;;;2.03;;
45642;SDS011;31358;46.008;11.144;2024-02-15T10:51:55;5.55;;;2.53;;
45642;SDS011;31358;46.008;11.144;2024-02-15T10:57:11;4.60;;;2.30;;
45642;SDS011;31358;46.008;11.144;2024-02-15T10:59:40;5.43;;;3.20;;
45642;SDS011;31358;46.008;11.144;2024-02-15T11:02:28;8.13;;;2.72;;
45642;SDS011;31358;46.008;11.144;2024-02-15T11:04:55;4.10;;;2.13;;
45642;SDS011;31358;46.008;11.144;2024-02-15T11:07:28;5.53;;;1.88;;
45642;SDS011;31358;46.008;11.144;2024-02-15T11:09:55;5.95;;;2.15;;
45642;SDS011;31358;46.008;11.144;2024-02-15T11:12:22;4.18;;;1.90;;
45642;SDS011;31358;46.008;11.144;2024-02-15T11:14:50;12.68;;;5.75;;
45642;SDS011;31358;46.008;11.144;2024-02-15T11:20:05;7.72;;;3.92;;
45642;SDS011;31358;46.008;11.144;2024-02-15T11:22:35;5.45;;;4.00;;
45642;SDS011;31358;46.008;11.144;2024-02-15T11:25:02;3.83;;;2.00;;
45642;SDS011;31358;46.008;11.144;2024-02-15T11:27:37;5.78;;;2.90;;
45642;SDS011;31358;46.008;11.144;2024-02-15T11:30:05;6.65;;;2.20;;
45642;SDS011;31358;46.008;11.144;2024-02-15T11:32:50;9.40;;;3.60;;
45642;SDS011;31358;46.008;11.144;2024-02-15T11:35:21;7.00;;;2.85;;
45642;SDS011;31358;46.008;11.144;2024-02-15T11:42:45;5.18;;;1.88;;
45642;SDS011;31358;46.008;11.144;2024-02-15T11:45:11;5.55;;;2.20;;
45642;SDS011;31358;46.008;11.144;2024-02-15T11:47:38;4.30;;;1.75;;
45642;SDS011;31358;46.008;11.144;2024-02-15T11:50:07;4.63;;;2.25;;
45642;SDS011;31358;46.008;11.144;2024-02-15T11:52:40;4.40;;;1.88;;
45642;SDS011;31358;46.008;11.144;2024-02-15T11:55:11;9.03;;;5.47;;
45642;SDS011;31358;46.008;11.144;2024-02-15T11:57:41;8.70;;;2.50;;
45642;SDS011;31358;46.008;11.144;2024-02-15T12:00:26;5.38;;;1.92;;
45642;SDS011;31358;46.008;11.144;2024-02-15T12:05:57;3.75;;;1.35;;
45642;SDS011;31358;46.008;11.144;2024-02-15T12:08:45;4.45;;;1.50;;
45642;SDS011;31358;46.008;11.144;2024-02-15T12:11:30;3.90;;;2.05;;
45642;SDS011;31358;46.008;11.144;2024-02-15T12:14:14;3.83;;;2.10;;
45642;SDS011;31358;46.008;11.144;2024-02-15T12:17:06;3.13;;;1.20;;
45642;SDS011;31358;46.008;11.144;2024-02-15T12:19:53;4.97;;;3.00;;
45642;SDS011;31358;46.008;11.144;2024-02-15T12:24:55;5.05;;;1.55;;
45642;SDS011;31358;46.008;11.144;2024-02-15T12:27:36;3.85;;;1.33;;
45642;SDS011;31358;46.008;11.144;2024-02-15T12:30:20;4.07;;;1.48;;
45642;SDS011;31358;46.008;11.144;2024-02-15T12:32:49;5.78;;;1.55;;
45642;SDS011;31358;46.008;11.144;2024-02-15T12:35:15;3.45;;;1.33;;
45642;SDS011;31358;46.008;11.144;2024-02-15T12:40:36;8.65;;;4.32;;
45642;SDS011;31358;46.008;11.144;2024-02-15T12:43:05;10.52;;;5.15;;
45642;SDS011;31358;46.008;11.144;2024-02-15T12:45:37;4.60;;;2.47;;
45642;SDS011;31358;46.008;11.144;2024-02-15T12:48:06;6.07;;;2.85;;
45642;SDS011;31358;46.008;11.144;2024-02-15T12:50:34;3.20;;;1.70;;
45642;SDS011;31358;46.008;11.144;2024-02-15T12:53:01;4.07;;;1.75;;
45642;SDS011;31358;46.008;11.144;2024-02-15T12:55:30;6.30;;;2.10;;
45642;SDS011;31358;46.008;11.144;2024-02-15T12:58:00;9.85;;;7.03;;
45642;SDS011;31358;46.008;11.144;2024-02-15T13:00:29;12.77;;;10.93;;
45642;SDS011;31358;46.008;11.144;2024-02-15T13:03:01;8.05;;;6.03;;
45642;SDS011;31358;46.008;11.144;2024-02-15T13:05:28;5.93;;;3.45;;
45642;SDS011;31358;46.008;11.144;2024-02-15T13:07:56;8.50;;;4.50;;
45642;SDS011;31358;46.008;11.144;2024-02-15T13:10:35;4.43;;;1.95;;
45642;SDS011;31358;46.008;11.144;2024-02-15T13:13:01;2.60;;;1.00;;
45642;SDS011;31358;46.008;11.144;2024-02-15T13:15:27;2.00;;;0.85;;
45642;SDS011;31358;46.008;11.144;2024-02-15T13:17:58;6.22;;;1.23;;
45642;SDS011;31358;46.008;11.144;2024-02-15T13:20:24;2.60;;;1.17;;
45642;SDS011;31358;46.008;11.144;2024-02-15T13:23:03;2.30;;;0.80;;
45642;SDS011;31358;46.008;11.144;2024-02-15T13:25:33;1.35;;;0.63;;
45642;SDS011;31358;46.008;11.144;2024-02-15T13:28:04;3.00;;;1.70;;
45642;SDS011;31358;46.008;11.144;2024-02-15T13:30:30;4.03;;;2.35;;
45642;SDS011;31358;46.008;11.144;2024-02-15T13:32:56;4.60;;;1.45;;
45642;SDS011;31358;46.008;11.144;2024-02-15T13:35:22;3.97;;;1.33;;
45642;SDS011;31358;46.008;11.144;2024-02-15T13:37:51;4.38;;;1.55;;
45642;SDS011;31358;46.008;11.144;2024-02-15T13:40:19;3.95;;;1.75;;
45642;SDS011;31358;46.008;11.144;2024-02-15T13:42:48;3.08;;;1.25;;
45642;SDS011;31358;46.008;11.144;2024-02-15T13:45:31;4.15;;;1.30;;
45642;SDS011;31358;46.008;11.144;2024-02-15T13:48:02;3.70;;;1.20;;
45642;SDS011;31358;46.008;11.144;2024-02-15T13:50:35;2.03;;;0.82;;
45642;SDS011;31358;46.008;11.144;2024-02-15T13:53:02;4.53;;;1.73;;
45642;SDS011;31358;46.008;11.144;2024-02-15T13:55:29;2.40;;;1.02;;
45642;SDS011;31358;46.008;11.144;2024-02-15T13:57:55;3.80;;;1.10;;
45642;SDS011;31358;46.008;11.144;2024-02-15T14:00:22;2.67;;;0.95;;
45642;SDS011;31358;46.008;11.144;2024-02-15T14:02:54;1.77;;;1.00;;
45642;SDS011;31358;46.008;11.144;2024-02-15T14:05:22;2.78;;;1.00;;
45642;SDS011;31358;46.008;11.144;2024-02-15T14:07:51;1.88;;;1.00;;
45642;SDS011;31358;46.008;11.144;2024-02-15T14:10:20;3.30;;;1.00;;
45642;SDS011;31358;46.008;11.144;2024-02-15T14:12:46;6.55;;;1.20;;
45642;SDS011;31358;46.008;11.144;2024-02-15T14:15:13;2.88;;;1.10;;
45642;SDS011;31358;46.008;11.144;2024-02-15T14:17:42;3.53;;;1.08;;
45642;SDS011;31358;46.008;11.144;2024-02-15T14:20:09;4.50;;;1.15;;
45642;SDS011;31358;46.008;11.144;2024-02-15T14:22:39;2.13;;;0.90;;
45642;SDS011;31358;46.008;11.144;2024-02-15T14:25:15;13.65;;;5.78;;
45642;SDS011;31358;46.008;11.144;2024-02-15T14:27:41;6.55;;;2.55;;
45642;SDS011;31358;46.008;11.144;2024-02-15T14:30:08;6.65;;;2.22;;
45642;SDS011;31358;46.008;11.144;2024-02-15T14:32:52;4.65;;;1.30;;
45642;SDS011;31358;46.008;11.144;2024-02-15T14:35:34;4.45;;;1.38;;
45642;SDS011;31358;46.008;11.144;2024-02-15T14:38:03;3.83;;;1.90;;
45642;SDS011;31358;46.008;11.144;2024-02-15T14:40:36;3.63;;;1.20;;
45642;SDS011;31358;46.008;11.144;2024-02-15T14:43:04;4.95;;;1.45;;
45642;SDS011;31358;46.008;11.144;2024-02-15T14:45:34;3.85;;;1.50;;
45642;SDS011;31358;46.008;11.144;2024-02-15T14:48:03;2.42;;;1.23;;
45642;SDS011;31358;46.008;11.144;2024-02-15T14:50:29;4.05;;;1.50;;
45642;SDS011;31358;46.008;11.144;2024-02-15T14:52:55;6.63;;;1.83;;
45642;SDS011;31358;46.008;11.144;2024-02-15T14:55:21;6.07;;;1.90;;
45642;SDS011;31358;46.008;11.144;2024-02-15T14:57:47;5.95;;;2.38;;